Time;durP1;ratioP1;P1;durP2;ratioP2;P2;SDS_P1;SDS_P2;PMS_P1;PMS_P2;Temp;Humidity;BMP_temperature;BMP_pressure;BME280_temperature;BME280_humidity;BME280_pressure;Samples;Min_cycle;Max_cycle;Signal;HPM_P1;HPM_P2
2022/04/08 00:00:14;;;;;;;10.45;2.08;;;6.50;99.90;;;;;;5011027;28;20041;-68
2022/04/08 00:02:41;;;;;;;6.20;1.90;;;6.60;99.90;;;;;;5010768;28;20088;-68
2022/04/08 00:05:10;;;;;;;8.38;1.88;;;6.50;99.90;;;;;;5008754;28;20372;-68
2022/04/08 00:07:39;;;;;;;8.43;1.58;;;7.30;99.90;;;;;;5010016;28;20498;-68
2022/04/08 00:10:06;;;;;;;8.05;2.05;;;6.60;99.90;;;;;;5010168;28;20033;-68
2022/04/08 00:12:32;;;;;;;11.68;2.25;;;6.60;99.90;;;;;;5008679;28;20107;-68
2022/04/08 00:14:58;;;;;;;8.02;1.90;;;6.50;99.90;;;;;;4991305;28;20053;-68
2022/04/08 00:17:24;;;;;;;11.38;1.80;;;6.60;99.90;;;;;;5008553;28;20060;-68
2022/04/08 00:19:50;;;;;;;5.18;1.75;;;6.60;99.90;;;;;;4991025;28;20058;-68
2022/04/08 00:22:18;;;;;;;5.15;1.70;;;6.60;99.90;;;;;;5009229;28;20145;-68
2022/04/08 00:24:44;;;;;;;7.40;2.20;;;6.60;99.90;;;;;;5008653;28;20141;-68
2022/04/08 00:27:10;;;;;;;2.67;1.30;;;6.60;99.90;;;;;;5007786;28;20038;-68
2022/04/08 00:29:35;;;;;;;3.97;1.17;;;6.50;99.90;;;;;;5008229;28;20042;-68
2022/04/08 00:32:01;;;;;;;5.03;1.10;;;6.40;99.90;;;;;;5004099;28;20050;-68
2022/04/08 00:34:27;;;;;;;2.40;1.08;;;6.20;99.90;;;;;;4991267;28;20475;-68
2022/04/08 00:36:54;;;;;;;5.05;2.03;;;6.10;99.90;;;;;;4990797;28;20054;-68
2022/04/08 00:39:21;;;;;;;3.47;1.30;;;6.00;99.90;;;;;;5008683;28;20099;-68
2022/04/08 00:41:46;;;;;;;5.15;1.60;;;6.20;99.90;;;;;;5010196;28;20068;-69
2022/04/08 00:44:12;;;;;;;6.60;1.35;;;5.90;99.90;;;;;;5010220;28;20478;-68
2022/04/08 00:46:41;;;;;;;6.70;1.42;;;5.90;99.90;;;;;;5010749;28;20052;-68
2022/04/08 00:49:07;;;;;;;8.63;1.88;;;7.00;99.90;;;;;;5010665;28;20046;-68
2022/04/08 00:51:34;;;;;;;4.50;1.60;;;5.90;99.90;;;;;;4993193;28;20049;-67
2022/04/08 00:54:01;;;;;;;7.10;1.70;;;5.90;99.90;;;;;;4992797;28;20042;-68
2022/04/08 00:56:30;;;;;;;9.82;1.73;;;6.00;99.90;;;;;;4990825;28;20065;-68
2022/04/08 00:58:56;;;;;;;9.35;2.28;;;5.90;99.90;;;;;;5007698;28;20164;-68
2022/04/08 01:01:24;;;;;;;11.40;2.83;;;5.90;99.90;;;;;;5008347;28;20399;-68
2022/04/08 01:03:52;;;;;;;11.43;2.25;;;5.90;99.90;;;;;;4991168;28;20467;-68
2022/04/08 01:06:20;;;;;;;9.93;2.00;;;5.80;99.90;;;;;;4974507;28;20053;-68
2022/04/08 01:08:47;;;;;;;11.85;2.38;;;5.70;99.90;;;;;;5010179;28;20042;-68
2022/04/08 01:11:13;;;;;;;8.18;2.10;;;5.50;99.90;;;;;;4977230;28;20364;-68
2022/04/08 01:13:38;;;;;;;15.20;2.97;;;5.60;99.90;;;;;;5006167;28;20042;-68
2022/04/08 01:16:08;;;;;;;11.48;2.50;;;5.50;99.90;;;;;;5008308;28;20108;-68
2022/04/08 01:18:34;;;;;;;11.50;3.08;;;5.40;99.90;;;;;;5009580;28;20042;-68
2022/04/08 01:21:04;;;;;;;12.18;2.38;;;5.30;99.90;;;;;;4990934;28;20383;-68
2022/04/08 01:23:32;;;;;;;10.07;2.40;;;5.30;99.90;;;;;;4990407;28;20126;-69
2022/04/08 01:25:57;;;;;;;8.82;1.80;;;5.20;99.90;;;;;;4990181;28;20050;-68
2022/04/08 01:28:25;;;;;;;13.65;2.30;;;5.20;99.90;;;;;;5006347;28;20056;-68
2022/04/08 01:30:51;;;;;;;10.52;2.20;;;6.20;99.90;;;;;;5008413;28;20046;-68
2022/04/08 01:33:17;;;;;;;9.40;2.40;;;5.20;99.90;;;;;;5008647;28;20418;-68
2022/04/08 01:35:42;;;;;;;11.98;2.42;;;5.20;99.90;;;;;;5007119;28;20046;-68
2022/04/08 01:38:09;;;;;;;11.25;2.17;;;5.20;99.90;;;;;;5008438;28;20054;-68
2022/04/08 01:40:35;;;;;;;10.23;2.42;;;5.10;99.90;;;;;;5007113;28;20596;-69
2022/04/08 01:43:00;;;;;;;11.65;2.30;;;5.20;99.90;;;;;;4995713;28;20042;-68
2022/04/08 01:45:26;;;;;;;6.22;1.88;;;5.20;99.90;;;;;;5010080;28;20049;-68
2022/04/08 01:47:52;;;;;;;8.95;2.17;;;5.20;99.90;;;;;;5011600;28;20524;-68
2022/04/08 01:50:20;;;;;;;5.78;1.80;;;5.30;99.90;;;;;;5011344;28;20097;-68
2022/04/08 01:52:46;;;;;;;9.27;2.40;;;5.40;99.90;;;;;;5005155;28;20042;-68
2022/04/08 01:55:12;;;;;;;9.40;2.20;;;5.30;99.90;;;;;;5011376;28;20129;-68
2022/04/08 01:57:37;;;;;;;10.07;2.00;;;6.60;99.90;;;;;;4995343;28;20084;-68
2022/04/08 02:00:04;;;;;;;8.63;1.83;;;5.40;99.90;;;;;;4981983;28;20451;-68
2022/04/08 02:02:30;;;;;;;8.25;2.50;;;5.40;99.90;;;;;;5007995;28;20502;-68
2022/04/08 02:04:56;;;;;;;5.72;1.92;;;5.40;99.90;;;;;;5011322;28;20038;-68
2022/04/08 02:07:21;;;;;;;9.40;2.15;;;5.40;99.90;;;;;;5012432;28;20104;-68
2022/04/08 02:09:47;;;;;;;5.10;1.88;;;5.40;99.90;;;;;;5010923;28;20343;-68
2022/04/08 02:12:12;;;;;;;12.32;2.22;;;5.50;99.90;;;;;;5010383;28;20054;-68
2022/04/08 02:14:38;;;;;;;9.65;2.53;;;5.40;99.90;;;;;;5010783;28;20041;-68
2022/04/08 02:17:04;;;;;;;12.77;2.33;;;5.40;99.90;;;;;;5009995;28;20041;-68
2022/04/08 02:19:30;;;;;;;6.60;2.30;;;5.40;99.90;;;;;;5011366;28;20124;-67
2022/04/08 02:21:57;;;;;;;9.60;2.22;;;5.50;99.90;;;;;;5010996;28;20133;-68
2022/04/08 02:24:22;;;;;;;11.75;2.67;;;5.60;99.90;;;;;;5010868;28;20058;-68
2022/04/08 02:26:48;;;;;;;9.93;2.17;;;5.50;99.90;;;;;;5010684;28;20046;-67
2022/04/08 02:29:13;;;;;;;10.00;2.30;;;5.60;99.90;;;;;;4992520;28;20045;-67
2022/04/08 02:31:39;;;;;;;10.13;2.30;;;5.70;99.90;;;;;;5010769;28;20117;-68
2022/04/08 02:34:05;;;;;;;11.45;2.17;;;5.70;99.90;;;;;;4993615;28;20461;-67
2022/04/08 02:36:30;;;;;;;11.13;2.10;;;5.70;99.90;;;;;;4994455;28;20048;-67
2022/04/08 02:38:56;;;;;;;8.98;2.30;;;6.20;99.90;;;;;;5011300;28;20042;-68
2022/04/08 02:41:21;;;;;;;2.88;1.50;;;5.50;99.90;;;;;;5010707;28;20042;-68
2022/04/08 02:43:48;;;;;;;8.60;2.10;;;5.60;99.90;;;;;;4993846;28;20053;-68
2022/04/08 02:46:14;;;;;;;9.38;1.73;;;5.50;99.90;;;;;;4994541;28;20046;-67
2022/04/08 02:48:42;;;;;;;9.88;2.10;;;5.60;99.90;;;;;;5010463;28;20038;-68
2022/04/08 02:51:08;;;;;;;3.88;1.50;;;5.30;99.90;;;;;;5010962;28;20050;-67
2022/04/08 02:53:33;;;;;;;9.45;1.75;;;5.30;99.90;;;;;;5009809;28;20050;-68
2022/04/08 02:55:59;;;;;;;9.95;2.25;;;5.40;99.90;;;;;;4993647;28;20147;-69
2022/04/08 02:58:27;;;;;;;8.27;2.00;;;5.50;99.90;;;;;;5010311;28;20049;-68
2022/04/08 03:00:52;;;;;;;9.45;2.17;;;5.20;99.90;;;;;;5009984;28;20076;-70
2022/04/08 03:03:18;;;;;;;10.45;2.03;;;5.10;99.90;;;;;;5010984;28;20061;-67
2022/04/08 03:05:43;;;;;;;8.15;1.95;;;5.00;99.90;;;;;;5009762;28;20038;-68
2022/04/08 03:08:09;;;;;;;9.70;1.90;;;5.00;99.90;;;;;;5011017;28;20143;-68
2022/04/08 03:10:35;;;;;;;10.50;1.80;;;4.90;99.90;;;;;;4976053;28;20049;-68
2022/04/08 03:13:00;;;;;;;8.02;1.90;;;4.80;99.90;;;;;;5009156;28;20163;-67
2022/04/08 03:15:26;;;;;;;9.32;2.05;;;4.90;99.90;;;;;;4992143;28;20065;-67
2022/04/08 03:17:51;;;;;;;8.43;1.90;;;4.80;99.90;;;;;;5011729;28;20046;-67
2022/04/08 03:20:17;;;;;;;6.38;1.70;;;4.80;99.90;;;;;;5010179;28;20052;-67
2022/04/08 03:22:43;;;;;;;6.63;1.77;;;4.70;99.90;;;;;;5010537;28;20125;-68
2022/04/08 03:25:09;;;;;;;11.15;1.90;;;4.80;99.90;;;;;;5009919;28;20526;-68
2022/04/08 03:27:35;;;;;;;3.63;1.60;;;4.70;99.90;;;;;;5009526;28;20356;-67
2022/04/08 03:30:01;;;;;;;7.85;2.00;;;6.60;99.90;;;;;;5009099;28;20045;-68
2022/04/08 03:32:27;;;;;;;5.68;2.20;;;6.30;99.90;;;;;;5008823;28;20049;-68
2022/04/08 03:34:57;;;;;;;7.07;1.80;;;4.80;99.90;;;;;;5009144;28;20050;-69
2022/04/08 03:37:26;;;;;;;9.63;2.13;;;4.60;99.90;;;;;;4987210;28;20402;-68
2022/04/08 03:39:53;;;;;;;10.40;2.17;;;4.90;99.90;;;;;;5009230;28;20060;-67
2022/04/08 03:42:19;;;;;;;8.27;2.30;;;5.00;99.90;;;;;;5008852;28;20054;-68
2022/04/08 03:44:44;;;;;;;9.07;2.17;;;4.90;99.90;;;;;;5009270;28;20061;-67
2022/04/08 03:47:10;;;;;;;11.38;2.67;;;4.80;99.90;;;;;;4991530;28;20217;-68
2022/04/08 03:49:36;;;;;;;6.93;1.85;;;4.70;99.90;;;;;;5009111;28;20066;-67
2022/04/08 03:52:05;;;;;;;10.80;2.65;;;4.70;99.90;;;;;;5009424;28;20548;-68
2022/04/08 03:54:30;;;;;;;8.93;2.05;;;4.80;99.90;;;;;;4992374;28;20383;-68
2022/04/08 03:56:56;;;;;;;10.90;2.03;;;5.80;99.90;;;;;;5008347;28;20168;-68
2022/04/08 03:59:22;;;;;;;8.52;1.70;;;4.80;99.90;;;;;;5008569;28;20103;-68
2022/04/08 04:01:49;;;;;;;7.05;2.00;;;4.90;99.90;;;;;;5009815;28;20489;-68
2022/04/08 04:04:15;;;;;;;8.15;2.20;;;5.00;99.90;;;;;;5009085;28;20394;-68
2022/04/08 04:06:41;;;;;;;4.70;1.77;;;5.20;99.90;;;;;;5009084;28;20046;-68
2022/04/08 04:09:06;;;;;;;4.65;1.42;;;5.20;99.90;;;;;;5008701;28;20038;-68
2022/04/08 04:11:33;;;;;;;2.58;1.52;;;5.10;99.90;;;;;;4992287;28;20050;-68
2022/04/08 04:13:59;;;;;;;4.40;1.75;;;4.80;99.90;;;;;;5004388;28;20038;-68
2022/04/08 04:16:26;;;;;;;3.80;1.73;;;4.80;99.90;;;;;;5008307;28;20483;-68
2022/04/08 04:18:52;;;;;;;3.72;1.55;;;4.70;99.90;;;;;;5009348;28;20467;-68
2022/04/08 04:21:17;;;;;;;6.35;2.00;;;4.70;99.90;;;;;;5009378;28;20061;-68
2022/04/08 04:23:43;;;;;;;8.15;2.03;;;4.60;99.90;;;;;;4990869;28;20464;-68
2022/04/08 04:26:09;;;;;;;8.68;2.60;;;4.50;99.90;;;;;;5008380;28;20050;-68
2022/04/08 04:28:35;;;;;;;7.35;2.00;;;4.50;99.90;;;;;;5007593;28;20065;-68
2022/04/08 04:31:01;;;;;;;5.18;1.67;;;4.50;99.90;;;;;;4990880;28;20077;-67
2022/04/08 04:33:27;;;;;;;6.55;1.90;;;4.50;99.90;;;;;;4991306;28;20048;-68
2022/04/08 04:35:53;;;;;;;4.05;1.73;;;4.70;99.90;;;;;;5008701;28;20042;-68
2022/04/08 04:38:18;;;;;;;4.28;1.90;;;4.30;99.90;;;;;;4973824;28;20140;-68
2022/04/08 04:40:44;;;;;;;4.00;1.60;;;4.30;99.90;;;;;;5010539;28;20425;-68
2022/04/08 04:43:09;;;;;;;4.10;1.70;;;4.30;99.90;;;;;;5000947;28;20041;-68
2022/04/08 04:45:38;;;;;;;5.78;1.80;;;4.90;99.90;;;;;;4989944;28;20125;-68
2022/04/08 04:48:05;;;;;;;3.38;1.80;;;4.30;99.90;;;;;;4990876;28;20092;-68
2022/04/08 04:50:31;;;;;;;7.47;2.22;;;4.00;99.90;;;;;;5008421;28;20435;-69
2022/04/08 04:52:57;;;;;;;4.82;1.67;;;5.50;99.90;;;;;;5008788;28;20133;-68
2022/04/08 04:55:23;;;;;;;6.85;2.00;;;4.30;99.90;;;;;;5010430;28;20172;-69
2022/04/08 04:57:48;;;;;;;7.45;1.88;;;4.30;99.90;;;;;;5007981;28;20140;-69
2022/04/08 05:00:16;;;;;;;7.80;2.03;;;4.30;99.90;;;;;;4989589;28;20052;-69
2022/04/08 05:02:42;;;;;;;4.80;1.90;;;4.30;99.90;;;;;;4990187;28;20118;-70
2022/04/08 05:05:08;;;;;;;6.80;2.58;;;4.20;99.90;;;;;;5008214;28;20045;-68
2022/04/08 05:07:34;;;;;;;5.32;1.75;;;4.20;99.90;;;;;;5008478;28;20121;-68
2022/04/08 05:10:00;;;;;;;4.72;1.88;;;4.20;99.90;;;;;;5003427;28;20113;-69
2022/04/08 05:12:26;;;;;;;5.13;2.05;;;4.20;99.90;;;;;;5000647;28;20042;-68
2022/04/08 05:14:51;;;;;;;7.32;1.80;;;4.20;99.90;;;;;;5008782;28;20050;-68
2022/04/08 05:17:17;;;;;;;5.18;1.95;;;4.40;99.90;;;;;;4990081;28;20049;-68
2022/04/08 05:19:43;;;;;;;5.00;1.90;;;4.40;99.90;;;;;;5007221;28;20050;-68
2022/04/08 05:22:08;;;;;;;5.88;1.75;;;4.40;99.90;;;;;;5007534;28;20112;-68
2022/04/08 05:24:34;;;;;;;7.95;1.80;;;4.40;99.90;;;;;;5008989;28;20046;-68
2022/04/08 05:26:59;;;;;;;3.65;1.63;;;4.40;99.90;;;;;;5006378;28;20072;-68
2022/04/08 05:29:25;;;;;;;5.07;1.77;;;4.40;99.90;;;;;;5006911;28;20064;-68
2022/04/08 05:31:51;;;;;;;5.07;2.05;;;6.10;99.90;;;;;;5007721;28;20048;-68
2022/04/08 05:34:16;;;;;;;4.53;2.00;;;4.50;99.90;;;;;;4989439;28;20041;-69
2022/04/08 05:36:42;;;;;;;5.68;1.73;;;4.50;99.90;;;;;;5008118;28;20133;-68
2022/04/08 05:39:08;;;;;;;5.80;1.80;;;4.50;99.90;;;;;;5008352;28;20486;-69
2022/04/08 05:41:33;;;;;;;4.68;1.95;;;4.50;99.90;;;;;;5006342;28;20431;-68
2022/04/08 05:44:00;;;;;;;3.33;1.60;;;4.50;99.90;;;;;;5001152;28;20554;-68
2022/04/08 05:46:26;;;;;;;4.38;1.80;;;4.50;99.90;;;;;;5008490;28;20328;-68
2022/04/08 05:48:51;;;;;;;3.53;1.88;;;4.50;99.90;;;;;;5006481;28;20038;-68
2022/04/08 05:51:17;;;;;;;5.18;2.08;;;4.60;99.90;;;;;;5008448;28;20096;-68
2022/04/08 05:53:43;;;;;;;4.13;1.90;;;4.70;99.90;;;;;;5007056;28;20035;-68
2022/04/08 05:56:08;;;;;;;3.70;1.80;;;4.80;99.90;;;;;;5006351;28;20391;-68
2022/04/08 05:58:34;;;;;;;5.53;1.73;;;4.80;99.90;;;;;;4988519;28;20054;-69
2022/04/08 06:01:00;;;;;;;5.40;2.00;;;4.80;99.90;;;;;;5007708;28;20364;-68
2022/04/08 06:03:25;;;;;;;5.72;2.10;;;4.90;99.90;;;;;;4988697;28;20041;-69
2022/04/08 06:05:51;;;;;;;3.20;1.80;;;5.00;99.90;;;;;;5006789;28;20069;-69
2022/04/08 06:08:17;;;;;;;4.35;1.90;;;5.00;99.90;;;;;;5007255;28;20133;-68
2022/04/08 06:10:42;;;;;;;5.20;2.00;;;5.00;99.90;;;;;;4988058;28;20042;-67
2022/04/08 06:13:08;;;;;;;4.57;2.20;;;5.00;99.90;;;;;;5006651;28;20121;-68
2022/04/08 06:15:35;;;;;;;5.57;2.35;;;5.10;99.90;;;;;;5005810;28;20049;-68
2022/04/08 06:18:01;;;;;;;5.70;2.20;;;5.10;99.90;;;;;;5007007;28;20054;-68
2022/04/08 06:20:27;;;;;;;5.00;2.00;;;5.10;99.90;;;;;;4990323;28;20375;-68
2022/04/08 06:22:54;;;;;;;8.40;2.42;;;5.10;99.90;;;;;;5006395;28;20049;-69
2022/04/08 06:25:21;;;;;;;5.03;2.00;;;5.10;99.90;;;;;;4973844;28;20045;-69
2022/04/08 06:27:58;;;;;;;8.07;2.15;;;5.10;99.90;;;;;;5006447;28;20042;-68
2022/04/08 06:30:24;;;;;;;4.60;1.85;;;5.20;99.90;;;;;;4973018;28;20037;-69
2022/04/08 06:32:49;;;;;;;6.63;2.28;;;5.20;99.90;;;;;;4992462;28;20501;-69
2022/04/08 06:35:15;;;;;;;8.85;2.20;;;5.30;99.90;;;;;;5011891;28;20069;-71
2022/04/08 06:37:41;;;;;;;6.90;2.00;;;5.30;99.90;;;;;;5011335;28;20367;-69
2022/04/08 06:40:10;;;;;;;8.70;2.25;;;5.30;99.90;;;;;;4991916;28;20064;-67
2022/04/08 06:42:38;;;;;;;6.47;2.17;;;6.10;99.90;;;;;;5009660;28;20085;-68
2022/04/08 06:45:05;;;;;;;11.02;2.40;;;5.50;99.90;;;;;;5008496;28;20054;-68
2022/04/08 06:47:31;;;;;;;6.43;2.13;;;5.60;99.90;;;;;;5010210;28;20061;-69
2022/04/08 06:49:57;;;;;;;8.85;2.55;;;5.70;99.90;;;;;;5010147;28;20053;-70
2022/04/08 06:52:23;;;;;;;8.45;2.20;;;5.80;99.90;;;;;;5010128;28;20501;-68
2022/04/08 06:54:49;;;;;;;5.65;2.50;;;5.90;99.90;;;;;;5009749;28;20045;-68
2022/04/08 06:57:14;;;;;;;8.30;2.30;;;6.10;99.90;;;;;;5010046;28;20048;-68
2022/04/08 06:59:41;;;;;;;6.70;2.20;;;6.00;99.90;;;;;;5008925;28;20510;-68
2022/04/08 07:02:07;;;;;;;10.48;2.58;;;6.00;99.90;;;;;;5009655;28;20073;-68
2022/04/08 07:04:34;;;;;;;10.52;2.42;;;6.10;99.90;;;;;;4993825;28;20128;-70
2022/04/08 07:07:01;;;;;;;9.95;2.15;;;6.20;99.90;;;;;;4972128;28;20174;-69
2022/04/08 07:09:26;;;;;;;7.00;2.00;;;6.30;99.90;;;;;;5009281;28;20121;-69
2022/04/08 07:11:52;;;;;;;5.10;2.20;;;6.40;99.90;;;;;;4991620;28;20125;-68
2022/04/08 07:14:18;;;;;;;5.20;2.30;;;6.40;99.90;;;;;;4991414;28;20524;-69
2022/04/08 07:16:43;;;;;;;7.93;2.33;;;6.50;99.90;;;;;;4992724;28;20060;-68
2022/04/08 07:19:10;;;;;;;6.55;2.28;;;6.50;99.90;;;;;;5009307;28;20126;-68
2022/04/08 07:21:36;;;;;;;7.63;2.38;;;6.60;99.90;;;;;;4993547;28;20554;-68
2022/04/08 07:24:02;;;;;;;5.15;2.20;;;6.60;99.90;;;;;;5010675;28;20093;-69
2022/04/08 07:26:28;;;;;;;13.25;2.30;;;6.80;99.90;;;;;;5008626;28;20053;-68
2022/04/08 07:28:55;;;;;;;7.43;2.20;;;7.00;99.90;;;;;;5008993;28;20125;-68
2022/04/08 07:31:21;;;;;;;9.82;2.20;;;7.60;99.90;;;;;;5009549;28;20053;-67
2022/04/08 07:33:47;;;;;;;12.48;2.60;;;7.50;99.90;;;;;;5007799;28;20041;-69
2022/04/08 07:36:14;;;;;;;6.07;2.10;;;7.60;99.90;;;;;;4999148;28;20053;-68
2022/04/08 07:38:39;;;;;;;5.13;2.10;;;7.90;99.90;;;;;;5009523;28;20038;-69
2022/04/08 07:41:05;;;;;;;4.28;1.95;;;8.10;99.90;;;;;;5004374;28;20057;-68
2022/04/08 07:43:31;;;;;;;5.65;2.20;;;8.20;99.90;;;;;;4998492;28;20045;-69
2022/04/08 07:45:56;;;;;;;7.88;2.00;;;8.20;99.90;;;;;;4978065;28;20046;-69
2022/04/08 07:48:22;;;;;;;5.70;2.10;;;8.10;99.90;;;;;;5011016;28;20038;-69
2022/04/08 07:50:48;;;;;;;5.90;1.98;;;8.30;99.90;;;;;;5009120;28;20392;-69
2022/04/08 07:53:13;;;;;;;4.28;1.90;;;8.10;99.90;;;;;;5009774;28;20046;-68
2022/04/08 07:55:39;;;;;;;6.28;2.42;;;8.90;99.90;;;;;;5007817;28;20431;-68
2022/04/08 07:58:05;;;;;;;6.40;2.20;;;8.00;99.90;;;;;;4991047;28;20042;-68
2022/04/08 08:00:32;;;;;;;6.43;2.35;;;7.90;99.90;;;;;;5008677;28;20427;-69
2022/04/08 08:02:58;;;;;;;10.10;2.40;;;7.80;99.90;;;;;;5008496;28;20091;-68
2022/04/08 08:05:25;;;;;;;6.00;1.85;;;7.90;99.90;;;;;;5009631;28;20414;-68
2022/04/08 08:07:52;;;;;;;6.03;2.08;;;7.90;99.90;;;;;;5008598;28;20041;-69
2022/04/08 08:10:20;;;;;;;7.03;2.35;;;8.10;99.90;;;;;;4990781;28;20049;-69
2022/04/08 08:12:47;;;;;;;9.18;2.33;;;8.20;99.90;;;;;;5010638;28;20056;-68
2022/04/08 08:15:13;;;;;;;10.95;3.38;;;8.40;99.90;;;;;;4974493;28;20050;-68
2022/04/08 08:17:39;;;;;;;8.07;2.00;;;8.60;99.90;;;;;;5009061;28;20188;-68
2022/04/08 08:20:06;;;;;;;9.98;2.50;;;8.90;99.90;;;;;;5009025;28;20081;-68
2022/04/08 08:22:32;;;;;;;7.43;2.20;;;9.10;99.90;;;;;;4991156;28;20046;-67
2022/04/08 08:24:58;;;;;;;12.70;2.25;;;9.30;99.90;;;;;;5007892;28;20056;-68
2022/04/08 08:27:24;;;;;;;9.27;2.53;;;9.50;99.90;;;;;;5008345;28;20110;-67
2022/04/08 08:29:49;;;;;;;7.50;2.50;;;9.40;99.90;;;;;;4988865;28;20098;-68
2022/04/08 08:32:15;;;;;;;6.45;1.90;;;9.40;99.90;;;;;;5008756;28;20073;-67
2022/04/08 08:34:40;;;;;;;8.93;2.30;;;9.30;99.90;;;;;;4990763;28;20050;-69
2022/04/08 08:37:06;;;;;;;7.25;2.13;;;9.20;99.90;;;;;;5008257;28;20442;-67
2022/04/08 08:39:33;;;;;;;7.93;2.38;;;9.30;99.90;;;;;;5010773;28;20038;-69
2022/04/08 08:41:59;;;;;;;6.00;1.92;;;9.50;99.90;;;;;;4992596;28;20053;-67
2022/04/08 08:44:25;;;;;;;5.70;1.73;;;9.80;99.90;;;;;;5009148;28;20038;-68
2022/04/08 08:46:52;;;;;;;5.43;1.63;;;9.90;99.90;;;;;;5010520;28;20085;-68
2022/04/08 08:49:22;;;;;;;7.35;1.92;;;9.80;99.90;;;;;;5007908;28;20030;-68
2022/04/08 08:51:55;;;;;;;7.97;2.08;;;9.70;99.90;;;;;;4989662;28;20050;-68
2022/04/08 08:54:21;;;;;;;9.85;2.42;;;10.50;99.90;;;;;;5009604;28;20056;-68
2022/04/08 08:56:47;;;;;;;7.45;2.45;;;9.50;99.90;;;;;;4989854;28;20136;-68
2022/04/08 08:59:12;;;;;;;5.95;1.80;;;10.50;99.90;;;;;;4988337;28;20073;-68
2022/04/08 09:01:38;;;;;;;5.50;1.70;;;10.00;99.90;;;;;;5007961;28;20056;-68
2022/04/08 09:04:05;;;;;;;6.93;1.95;;;9.90;99.90;;;;;;4995267;28;20046;-68
2022/04/08 09:06:42;;;;;;;5.97;1.70;;;9.90;99.90;;;;;;4988223;28;20560;-68
2022/04/08 09:09:07;;;;;;;8.65;2.00;;;9.60;99.90;;;;;;4992092;28;20065;-67
2022/04/08 09:11:33;;;;;;;6.90;1.77;;;9.20;99.90;;;;;;5006539;28;20125;-67
2022/04/08 09:14:05;;;;;;;4.57;2.05;;;8.70;99.90;;;;;;5006163;28;20034;-67
2022/04/08 09:16:37;;;;;;;6.15;2.35;;;8.30;99.90;;;;;;4990658;28;20053;-67
2022/04/08 09:19:11;;;;;;;6.45;2.20;;;8.20;99.90;;;;;;5007529;28;20088;-67
2022/04/08 09:21:36;;;;;;;7.32;2.40;;;8.60;99.90;;;;;;4977424;28;20050;-67
2022/04/08 09:24:06;;;;;;;10.13;2.50;;;10.90;99.90;;;;;;4979444;28;20080;-68
2022/04/08 09:26:36;;;;;;;5.68;2.25;;;13.70;99.90;;;;;;4985379;28;20058;-68
2022/04/08 09:29:03;;;;;;;6.70;2.03;;;15.90;99.90;;;;;;4986902;28;20077;-68
2022/04/08 09:31:29;;;;;;;7.55;2.08;;;18.70;99.90;;;;;;4982843;28;20434;-69
2022/04/08 09:33:55;;;;;;;6.22;1.83;;;18.90;98.50;;;;;;4987497;28;20043;-68
2022/04/08 09:36:31;;;;;;;3.08;1.50;;;17.80;97.20;;;;;;4987798;28;20073;-68
2022/04/08 09:38:58;;;;;;;2.50;1.15;;;15.80;97.90;;;;;;4986754;28;20391;-68
2022/04/08 09:41:40;;;;;;;2.20;1.27;;;14.00;99.90;;;;;;4986973;28;20362;-68
2022/04/08 09:44:07;;;;;;;5.50;1.42;;;12.70;99.90;;;;;;4986836;28;20092;-68
2022/04/08 09:46:33;;;;;;;4.15;1.50;;;12.30;99.90;;;;;;4987191;28;20475;-67
2022/04/08 09:48:58;;;;;;;2.25;1.35;;;12.80;99.90;;;;;;4986177;28;20137;-67
2022/04/08 09:51:27;;;;;;;1.92;1.23;;;12.80;99.90;;;;;;4987890;28;20121;-68
2022/04/08 09:53:58;;;;;;;4.60;1.52;;;13.20;99.90;;;;;;4969271;28;20105;-68
2022/04/08 09:56:27;;;;;;;3.63;1.77;;;14.50;99.90;;;;;;4989694;28;20137;-68
2022/04/08 09:59:07;;;;;;;5.20;1.75;;;17.20;99.90;;;;;;4985449;28;20050;-69
2022/04/08 10:01:35;;;;;;;3.00;1.70;;;20.60;99.40;;;;;;4965604;28;20054;-69
2022/04/08 10:04:05;;;;;;;5.75;2.22;;;22.80;91.50;;;;;;4967234;28;20051;-66
2022/04/08 10:06:31;;;;;;;8.30;2.08;;;23.90;81.30;;;;;;4970557;28;20042;-68
2022/04/08 10:08:59;;;;;;;5.53;1.80;;;23.80;78.40;;;;;;4970014;28;20043;-68
2022/04/08 10:11:37;;;;;;;5.40;1.60;;;22.20;72.80;;;;;;4970727;28;20047;-68
2022/04/08 10:14:24;;;;;;;4.13;1.30;;;19.80;78.30;;;;;;4970907;28;20050;-67
2022/04/08 10:16:51;;;;;;;4.53;1.35;;;17.40;90.10;;;;;;4969355;28;20077;-68
2022/04/08 10:19:17;;;;;;;6.32;1.60;;;15.90;97.40;;;;;;4970960;28;20117;-69
2022/04/08 10:21:43;;;;;;;5.93;1.98;;;14.30;99.90;;;;;;4971788;28;20193;-68
2022/04/08 10:24:13;;;;;;;5.20;2.05;;;13.30;99.90;;;;;;4981785;28;20058;-68
2022/04/08 10:27:03;;;;;;;3.42;1.40;;;13.60;99.90;;;;;;4990599;28;20056;-69
2022/04/08 10:29:33;;;;;;;4.55;1.58;;;15.90;99.90;;;;;;4990273;28;20052;-68
2022/04/08 10:32:11;;;;;;;4.00;1.50;;;18.50;96.80;;;;;;4941588;28;20046;-69
2022/04/08 10:34:37;;;;;;;4.90;1.58;;;19.70;93.90;;;;;;4991102;28;20136;-69
2022/04/08 10:37:17;;;;;;;7.22;1.50;;;19.70;93.30;;;;;;4990872;28;20082;-68
2022/04/08 10:39:56;;;;;;;6.10;1.80;;;18.10;93.90;;;;;;4973819;28;20585;-69
2022/04/08 10:42:22;;;;;;;6.55;1.75;;;19.50;96.00;;;;;;4990591;28;20094;-68
2022/04/08 10:44:48;;;;;;;3.50;1.50;;;19.70;91.20;;;;;;4991680;28;20133;-68
2022/04/08 10:47:16;;;;;;;5.22;1.60;;;19.40;92.00;;;;;;4991421;28;20113;-68
2022/04/08 10:50:04;;;;;;;5.22;1.48;;;17.90;92.30;;;;;;4991570;28;20045;-67
2022/04/08 10:52:38;;;;;;;3.83;1.40;;;16.50;94.80;;;;;;4991214;28;20105;-68
2022/04/08 10:55:09;;;;;;;5.45;1.52;;;14.80;99.30;;;;;;4990373;28;20059;-68
2022/04/08 10:57:40;;;;;;;3.22;1.55;;;13.60;99.90;;;;;;4971949;28;20049;-67
2022/04/08 11:00:08;;;;;;;3.20;1.67;;;13.40;99.90;;;;;;4989559;28;20073;-68
2022/04/08 11:02:35;;;;;;;6.38;1.60;;;15.00;99.90;;;;;;4973056;28;20057;-69
2022/04/08 11:05:06;;;;;;;4.47;1.50;;;17.60;99.10;;;;;;4972736;28;20108;-69
2022/04/08 11:07:32;;;;;;;7.13;1.60;;;20.20;94.00;;;;;;4990292;28;20053;-69
2022/04/08 11:09:59;;;;;;;6.30;1.75;;;22.10;90.00;;;;;;4990574;28;20125;-69
2022/04/08 11:12:25;;;;;;;5.63;1.75;;;23.70;76.70;;;;;;4989655;28;20054;-69
2022/04/08 11:14:58;;;;;;;8.18;2.10;;;24.70;67.50;;;;;;4989697;28;20046;-69
2022/04/08 11:17:33;;;;;;;5.43;1.67;;;25.80;66.40;;;;;;4971974;28;20469;-68
2022/04/08 11:19:59;;;;;;;5.18;1.83;;;26.40;60.70;;;;;;4956235;28;20118;-68
2022/04/08 11:22:25;;;;;;;6.20;1.65;;;26.40;57.50;;;;;;4989320;28;20046;-68
2022/04/08 11:24:56;;;;;;;6.20;1.52;;;26.10;54.40;;;;;;4988380;28;20066;-69
2022/04/08 11:27:22;;;;;;;4.85;1.70;;;25.90;53.80;;;;;;4989988;28;20046;-69
2022/04/08 11:29:47;;;;;;;7.57;1.90;;;25.10;54.00;;;;;;4989193;28;20460;-69
2022/04/08 11:32:13;;;;;;;6.32;1.70;;;23.50;55.90;;;;;;4989751;28;20106;-69
2022/04/08 11:34:39;;;;;;;6.60;1.92;;;21.80;59.20;;;;;;4990121;28;20129;-68
2022/04/08 11:37:05;;;;;;;5.72;1.70;;;20.20;62.50;;;;;;4990199;28;20570;-68
2022/04/08 11:39:31;;;;;;;6.22;1.63;;;19.20;66.50;;;;;;4971966;28;20196;-68
2022/04/08 11:41:57;;;;;;;7.32;1.70;;;19.10;69.80;;;;;;4989582;28;20050;-68
2022/04/08 11:44:24;;;;;;;6.45;2.00;;;19.40;72.80;;;;;;4989380;28;20384;-69
2022/04/08 11:46:50;;;;;;;7.78;1.95;;;19.80;73.00;;;;;;4971940;28;20101;-68
2022/04/08 11:49:18;;;;;;;5.78;1.80;;;19.90;72.80;;;;;;4996353;28;20411;-68
2022/04/08 11:51:45;;;;;;;4.30;1.77;;;19.60;73.90;;;;;;5009037;28;20046;-68
2022/04/08 11:54:11;;;;;;;6.70;1.63;;;20.50;76.50;;;;;;5008721;28;20042;-68
2022/04/08 11:56:37;;;;;;;6.85;1.70;;;21.40;73.20;;;;;;4991094;28;20458;-69
2022/04/08 11:59:04;;;;;;;5.82;1.70;;;23.30;67.20;;;;;;5008166;28;20056;-68
2022/04/08 12:01:35;;;;;;;4.25;1.40;;;25.20;62.80;;;;;;5008291;28;20096;-69
2022/04/08 12:04:03;;;;;;;6.18;1.50;;;24.90;60.10;;;;;;5008069;28;20038;-68
2022/04/08 12:06:38;;;;;;;5.55;1.52;;;24.90;58.20;;;;;;5009168;28;20113;-68
2022/04/08 12:09:04;;;;;;;5.30;1.70;;;24.10;56.50;;;;;;5008432;28;20042;-68
2022/04/08 12:11:31;;;;;;;6.72;1.88;;;22.50;56.00;;;;;;5009909;28;20426;-68
2022/04/08 12:13:57;;;;;;;7.32;1.63;;;21.30;57.10;;;;;;5009052;28;20049;-68
2022/04/08 12:16:23;;;;;;;3.75;1.48;;;21.70;55.00;;;;;;5009159;28;20398;-68
2022/04/08 12:18:54;;;;;;;9.48;1.92;;;21.30;57.60;;;;;;5008621;28;20121;-67
2022/04/08 12:21:25;;;;;;;5.45;1.50;;;22.20;56.70;;;;;;5008264;28;20501;-68
2022/04/08 12:23:52;;;;;;;5.95;1.90;;;22.80;54.30;;;;;;4990919;28;20065;-68
2022/04/08 12:26:19;;;;;;;6.22;1.60;;;23.20;53.80;;;;;;5008325;28;20557;-68
2022/04/08 12:28:46;;;;;;;6.28;1.52;;;23.70;52.80;;;;;;5006765;28;20495;-68
2022/04/08 12:31:16;;;;;;;5.25;1.70;;;24.20;52.00;;;;;;5008747;28;20057;-68
2022/04/08 12:33:42;;;;;;;8.52;1.70;;;24.10;52.20;;;;;;5008596;28;20050;-68
2022/04/08 12:36:09;;;;;;;9.43;1.98;;;22.60;53.60;;;;;;5007998;28;20045;-69
2022/04/08 12:38:42;;;;;;;7.78;1.67;;;20.80;57.00;;;;;;5008899;28;20045;-68
2022/04/08 12:41:10;;;;;;;3.60;1.50;;;18.90;60.30;;;;;;5008340;28;20121;-69
2022/04/08 12:43:36;;;;;;;5.15;1.65;;;17.70;64.40;;;;;;5007170;28;20550;-68
2022/04/08 12:46:02;;;;;;;6.55;1.50;;;16.50;70.50;;;;;;5008488;28;20049;-69
2022/04/08 12:48:27;;;;;;;6.68;1.50;;;15.60;82.20;;;;;;5009111;28;20038;-68
2022/04/08 12:50:55;;;;;;;5.05;1.40;;;15.10;91.20;;;;;;4992568;28;20075;-69